Time;durP1;ratioP1;P1;durP2;ratioP2;P2;SDS_P1;SDS_P2;PMS_P1;PMS_P2;Temp;Humidity;BMP_temperature;BMP_pressure;BME280_temperature;BME280_humidity;BME280_pressure;Samples;Min_cycle;Max_cycle;Signal;HPM_P1;HPM_P2
2022/09/13 00:00:36;;;;;;;3.05;2.20;;;;;;;19.78;100.00;99641.13;5053409;28;20024;-70
2022/09/13 00:03:02;;;;;;;2.53;1.92;;;;;;;19.72;100.00;99614.94;5053213;28;20400;-70
2022/09/13 00:05:27;;;;;;;3.20;1.95;;;;;;;19.74;100.00;99626.81;5053665;28;20040;-68
2022/09/13 00:07:53;;;;;;;3.17;2.10;;;;;;;19.34;100.00;99580.72;5053959;28;20410;-70
2022/09/13 00:10:18;;;;;;;3.45;2.10;;;;;;;19.55;100.00;99589.53;5053295;28;20480;-70
2022/09/13 00:12:44;;;;;;;2.92;2.20;;;;;;;19.64;100.00;99648.19;5052137;28;20388;-70
2022/09/13 00:15:10;;;;;;;3.22;2.17;;;;;;;19.03;100.00;99551.09;5053614;28;20025;-69
2022/09/13 00:17:36;;;;;;;2.10;1.90;;;;;;;19.57;100.00;99636.69;5052118;28;20067;-71
2022/09/13 00:20:02;;;;;;;4.13;2.20;;;;;;;18.94;100.00;99552.53;5053167;28;20479;-70
2022/09/13 00:22:28;;;;;;;2.35;2.10;;;;;;;18.90;100.00;99520.19;5053289;28;20060;-73
2022/09/13 00:24:53;;;;;;;2.33;1.92;;;;;;;19.58;100.00;99657.19;5051882;28;20526;-69
2022/09/13 00:27:19;;;;;;;3.75;2.05;;;;;;;19.15;100.00;99580.34;5051443;28;20462;-71
2022/09/13 00:29:45;;;;;;;2.47;2.03;;;;;;;19.34;100.00;99572.97;5053018;28;20029;-71
2022/09/13 00:32:11;;;;;;;3.85;2.25;;;;;;;19.21;100.00;99564.44;5051759;28;20037;-69
2022/09/13 00:34:37;;;;;;;2.92;2.10;;;;;;;19.49;100.00;99644.94;5053327;28;20029;-70
2022/09/13 00:37:02;;;;;;;2.78;2.10;;;;;;;19.38;100.00;99620.81;5051221;28;20410;-70
2022/09/13 00:39:28;;;;;;;5.28;2.20;;;;;;;19.19;100.00;99585.19;5053149;28;20033;-70
2022/09/13 00:41:53;;;;;;;2.92;2.20;;;;;;;19.27;100.00;99649.91;5052631;28;20025;-70
2022/09/13 00:44:54;;;;;;;2.20;2.00;;;;;;;19.47;100.00;99662.25;5052663;28;20574;-71
2022/09/13 00:47:38;;;;;;;3.88;1.90;;;;;;;19.07;100.00;99585.19;5052659;28;20033;-69
2022/09/13 00:50:31;;;;;;;3.55;2.40;;;;;;;18.91;100.00;99644.69;5052688;28;20410;-69
2022/09/13 00:53:12;;;;;;;3.22;1.98;;;;;;;19.52;100.00;99677.44;5052678;28;20065;-69
2022/09/13 00:55:42;;;;;;;3.97;2.05;;;;;;;18.69;100.00;99609.25;5051228;28;20035;-68
2022/09/13 00:58:14;;;;;;;3.75;2.15;;;;;;;18.63;100.00;99611.38;5052146;28;20119;-70
2022/09/13 01:00:40;;;;;;;4.63;2.20;;;;;;;19.30;100.00;99674.63;5051939;28;20024;-69
2022/09/13 01:03:10;;;;;;;3.60;2.00;;;;;;;19.46;100.00;99664.94;5052407;28;20028;-69
2022/09/13 01:05:42;;;;;;;2.50;1.95;;;;;;;18.56;100.00;99536.28;5052359;28;20064;-69
2022/09/13 01:08:14;;;;;;;3.60;2.17;;;;;;;19.21;100.00;99654.66;5052721;28;20412;-69
2022/09/13 01:10:42;;;;;;;4.03;2.00;;;;;;;19.36;100.00;99662.19;5050912;28;20033;-69
2022/09/13 01:13:20;;;;;;;3.08;1.90;;;;;;;19.24;100.00;99655.28;5052189;28;20086;-69
2022/09/13 01:15:46;;;;;;;3.00;2.20;;;;;;;19.23;100.00;99663.13;5052295;28;20041;-69
2022/09/13 01:18:12;;;;;;;4.47;2.17;;;;;;;18.91;100.00;99596.56;5052226;28;20029;-70
2022/09/13 01:20:59;;;;;;;2.75;1.90;;;;;;;19.08;100.00;99669.28;5052208;28;20033;-70
2022/09/13 01:23:46;;;;;;;3.15;2.10;;;;;;;19.15;100.00;99665.38;5050429;28;20036;-70
2022/09/13 01:26:15;;;;;;;2.70;2.03;;;;;;;19.03;100.00;99673.00;5050663;28;20534;-70
2022/09/13 01:29:01;;;;;;;2.45;2.03;;;;;;;19.07;100.00;99668.50;5050763;28;20044;-70
2022/09/13 01:31:36;;;;;;;4.43;1.85;;;;;;;19.07;100.00;99668.50;5051953;28;20423;-69
2022/09/13 01:34:14;;;;;;;2.60;2.17;;;;;;;18.99;100.00;99671.56;5050418;28;20037;-71
2022/09/13 01:37:20;;;;;;;2.75;2.00;;;;;;;18.97;100.00;99673.44;5052171;28;20017;-70
2022/09/13 01:40:11;;;;;;;2.72;2.13;;;;;;;18.79;100.00;99628.31;5043234;28;20514;-69
2022/09/13 01:42:56;;;;;;;3.15;2.13;;;;;;;19.02;100.00;99675.69;5052036;28;20195;-70
2022/09/13 01:45:37;;;;;;;3.40;2.25;;;;;;;18.93;100.00;99658.28;5052088;28;20021;-69
2022/09/13 01:48:23;;;;;;;2.65;2.10;;;;;;;18.81;100.00;99620.47;5051994;28;20033;-69
2022/09/13 01:50:57;;;;;;;3.45;2.10;;;;;;;18.98;100.00;99674.25;5051686;28;20632;-70
2022/09/13 01:53:37;;;;;;;2.70;2.20;;;;;;;18.93;100.00;99666.84;5051237;28;20044;-70
2022/09/13 01:56:12;;;;;;;3.97;2.20;;;;;;;18.64;100.00;99621.59;5051450;28;20035;-69
2022/09/13 01:58:57;;;;;;;3.05;2.45;;;;;;;18.64;100.00;99613.84;5051466;28;20033;-69
2022/09/13 02:01:37;;;;;;;3.33;2.20;;;;;;;18.58;100.00;99670.91;5051141;28;20035;-69
2022/09/13 02:04:08;;;;;;;4.13;2.20;;;;;;;18.19;100.00;99583.41;5051533;28;20491;-70
2022/09/13 02:06:44;;;;;;;3.67;2.33;;;;;;;18.59;100.00;99679.47;5051673;28;20120;-70
2022/09/13 02:09:15;;;;;;;4.35;2.33;;;;;;;18.58;100.00;99660.63;5049514;28;20037;-69
2022/09/13 02:11:44;;;;;;;2.80;2.20;;;;;;;18.02;100.00;99623.09;5050857;28;20025;-70
2022/09/13 02:14:18;;;;;;;4.00;2.30;;;;;;;17.67;100.00;99593.63;5049841;28;20124;-70
2022/09/13 02:16:49;;;;;;;2.58;2.10;;;;;;;18.26;100.00;99679.88;5036671;28;20026;-69
2022/09/13 02:19:23;;;;;;;4.35;2.92;;;;;;;18.08;100.00;99681.06;5031216;28;20033;-70
2022/09/13 02:21:57;;;;;;;4.80;2.20;;;;;;;18.23;100.00;99672.34;5031104;28;20099;-70
2022/09/13 02:24:32;;;;;;;3.67;2.40;;;;;;;18.27;100.00;99672.97;5030859;28;20034;-70
2022/09/13 02:27:02;;;;;;;2.47;2.17;;;;;;;17.73;100.00;99631.00;5030867;28;20099;-70
2022/09/13 02:29:30;;;;;;;2.80;2.13;;;;;;;17.19;100.00;99576.13;5030983;28;20124;-70
2022/09/13 02:32:17;;;;;;;3.00;2.60;;;;;;;17.84;100.00;99665.44;5029764;28;20519;-70
2022/09/13 02:34:49;;;;;;;4.03;2.50;;;;;;;17.39;100.00;99598.81;5037217;28;20037;-70
2022/09/13 02:37:14;;;;;;;4.65;2.45;;;;;;;17.84;100.00;99662.03;5049244;28;20039;-70
2022/09/13 02:39:46;;;;;;;2.55;2.30;;;;;;;17.33;100.00;99589.75;5050796;28;20029;-70
2022/09/13 02:42:21;;;;;;;3.55;2.65;;;;;;;17.40;100.00;99657.03;5051900;28;20029;-71
2022/09/13 02:44:52;;;;;;;3.67;2.70;;;;;;;17.11;100.00;99547.50;5051002;28;20028;-69
2022/09/13 02:47:33;;;;;;;5.63;2.85;;;;;;;17.50;100.00;99667.59;5050032;28;20036;-71
2022/09/13 02:50:22;;;;;;;3.45;2.50;;;;;;;17.44;100.00;99673.91;5050323;28;20037;-69
2022/09/13 02:53:44;;;;;;;2.85;2.65;;;;;;;17.36;100.00;99676.13;5048900;28;20055;-70
2022/09/13 02:56:18;;;;;;;3.03;2.60;;;;;;;17.46;100.00;99674.66;5028212;28;20029;-69
2022/09/13 02:58:49;;;;;;;5.43;2.92;;;;;;;16.68;100.00;99533.84;5028100;28;20205;-69
2022/09/13 03:01:14;;;;;;;3.22;2.90;;;;;;;17.12;100.00;99611.63;5043250;28;20068;-69
2022/09/13 03:03:40;;;;;;;5.18;2.70;;;;;;;16.64;100.00;99594.00;5049991;28;20028;-71
2022/09/13 03:06:06;;;;;;;5.15;2.90;;;;;;;16.72;100.00;99614.91;5050649;28;20114;-70
2022/09/13 03:08:33;;;;;;;3.88;2.80;;;;;;;17.25;100.00;99670.81;5048964;28;20064;-72
2022/09/13 03:11:43;;;;;;;4.47;3.05;;;;;;;17.17;100.00;99673.00;5050323;28;20032;-72
2022/09/13 03:14:18;;;;;;;6.78;3.20;;;;;;;17.12;100.00;99680.97;5040108;28;20060;-75
2022/09/13 03:17:04;;;;;;;8.15;3.67;;;;;;;17.11;100.00;99692.16;5048305;28;20033;-72
2022/09/13 03:19:52;;;;;;;5.10;3.35;;;;;;;17.40;100.00;99690.44;5050607;28;20068;-72
2022/09/13 03:22:35;;;;;;;7.75;3.75;;;;;;;16.02;100.00;99573.69;5051171;28;20037;-71
2022/09/13 03:25:13;;;;;;;6.45;3.80;;;;;;;16.66;100.00;99682.00;5053279;28;20082;-70
2022/09/13 03:28:15;;;;;;;6.15;3.97;;;;;;;16.25;100.00;99675.81;5053012;28;20032;-73
2022/09/13 03:30:48;;;;;;;6.72;4.05;;;;;;;16.18;100.00;99680.44;5050519;28;20487;-74
2022/09/13 03:33:19;;;;;;;5.65;3.90;;;;;;;16.19;100.00;99684.69;5038028;28;20031;-73
2022/09/13 03:35:58;;;;;;;8.52;4.10;;;;;;;16.21;100.00;99687.16;5046007;28;20056;-72
2022/09/13 03:38:34;;;;;;;6.43;3.85;;;;;;;16.35;100.00;99605.94;5053845;28;20068;-73
2022/09/13 03:41:03;;;;;;;8.82;4.60;;;;;;;15.60;100.00;99556.41;5053185;28;20115;-71
2022/09/13 03:43:46;;;;;;;7.80;5.15;;;;;;;15.39;100.00;99630.09;5053591;28;20538;-70
2022/09/13 03:46:21;;;;;;;9.18;5.78;;;;;;;15.73;100.00;99647.06;5052407;28;20410;-70
2022/09/13 03:48:49;;;;;;;9.38;5.38;;;;;;;15.26;100.00;99610.34;5051962;28;20407;-72
2022/09/13 03:51:14;;;;;;;8.65;5.90;;;;;;;15.51;100.00;99616.66;5052495;28;20036;-69
2022/09/13 03:53:46;;;;;;;8.13;5.68;;;;;;;16.02;100.00;99696.78;5052184;28;20392;-69
2022/09/13 03:56:18;;;;;;;7.60;5.80;;;;;;;15.94;100.00;99693.81;5053670;28;20252;-70
2022/09/13 03:58:44;;;;;;;;;;;;;;;16.08;100.00;99699.84;5052392;28;20027;-70
2022/09/13 04:01:10;;;;;;;10.77;6.32;;;;;;;16.35;100.00;99700.88;5047407;28;19975;-69
2022/09/13 04:03:39;;;;;;;8.32;6.13;;;;;;;16.99;100.00;99692.06;5046788;28;20040;-69
2022/09/13 04:06:05;;;;;;;9.23;6.07;;;;;;;16.25;100.00;99710.00;5053419;28;20052;-70
2022/09/13 04:08:32;;;;;;;10.07;6.00;;;;;;;17.46;100.00;99710.63;5051744;28;20028;-70
2022/09/13 04:10:57;;;;;;;7.63;6.10;;;;;;;16.77;100.00;99702.78;5053136;28;20077;-71
2022/09/13 04:13:23;;;;;;;6.68;5.82;;;;;;;16.53;100.00;99698.19;5051923;28;20109;-70
2022/09/13 04:15:49;;;;;;;8.75;6.55;;;;;;;16.17;100.00;99711.31;5051767;28;20029;-69
2022/09/13 04:18:15;;;;;;;9.40;6.60;;;;;;;16.04;100.00;99628.28;5052900;28;20033;-70
2022/09/13 04:20:41;;;;;;;11.30;6.90;;;;;;;16.22;100.00;99709.34;5051841;28;20040;-71
2022/09/13 04:23:07;;;;;;;12.30;7.40;;;;;;;15.61;100.00;99645.16;5050276;28;20065;-69
2022/09/13 04:25:32;;;;;;;8.60;7.38;;;;;;;15.43;100.00;99648.75;5052432;28;20491;-70
2022/09/13 04:28:01;;;;;;;9.65;8.50;;;;;;;15.47;100.00;99648.47;5052667;28;20055;-69
2022/09/13 04:30:27;;;;;;;11.55;9.75;;;;;;;15.41;100.00;99638.53;5052935;28;20029;-70
2022/09/13 04:32:55;;;;;;;11.60;9.23;;;;;;;15.38;100.00;99666.03;5052344;28;20090;-69
2022/09/13 04:35:21;;;;;;;11.85;9.55;;;;;;;15.17;100.00;99701.25;5051742;28;20056;-71
2022/09/13 04:37:46;;;;;;;11.48;9.05;;;;;;;15.77;100.00;99722.09;5034106;28;20484;-72
2022/09/13 04:40:13;;;;;;;13.68;8.85;;;;;;;17.31;100.00;99648.13;5032796;28;20095;-71
2022/09/13 04:42:38;;;;;;;14.52;9.50;;;;;;;17.16;100.00;99722.72;5049051;28;20036;-71
2022/09/13 04:45:05;;;;;;;12.85;10.00;;;;;;;15.84;100.00;99708.03;5052568;28;20107;-71
2022/09/13 04:47:31;;;;;;;13.80;10.00;;;;;;;16.26;100.00;99728.78;5050638;28;20036;-72
2022/09/13 04:49:56;;;;;;;12.95;11.75;;;;;;;15.98;100.00;99726.91;5050441;28;20029;-72
2022/09/13 04:52:21;;;;;;;16.95;10.77;;;;;;;15.95;100.00;99649.28;5050860;28;20048;-73
2022/09/13 04:54:47;;;;;;;12.35;10.35;;;;;;;16.07;100.00;99690.47;5050609;28;20041;-74
2022/09/13 04:57:13;;;;;;;12.27;10.25;;;;;;;16.07;100.00;99671.69;5052120;28;20029;-72
2022/09/13 04:59:39;;;;;;;14.18;10.60;;;;;;;16.03;100.00;99683.03;5051141;28;20170;-72
2022/09/13 05:02:05;;;;;;;12.73;9.48;;;;;;;16.55;100.00;99674.09;5052427;28;20612;-72
2022/09/13 05:04:30;;;;;;;16.25;10.25;;;;;;;15.90;100.00;99726.47;5051061;28;20119;-72
2022/09/13 05:06:57;;;;;;;12.70;10.95;;;;;;;16.03;100.00;99745.41;5052899;28;20470;-72
2022/09/13 05:09:23;;;;;;;14.57;10.82;;;;;;;16.32;100.00;99728.44;5052544;28;20056;-72
2022/09/13 05:11:48;;;;;;;14.20;10.88;;;;;;;15.97;100.00;99670.53;5050996;28;20487;-73
2022/09/13 05:14:14;;;;;;;13.10;10.95;;;;;;;16.21;100.00;99735.88;5052695;28;20471;-71
2022/09/13 05:16:39;;;;;;;15.40;10.98;;;;;;;16.38;100.00;99733.25;5052239;28;20025;-72
2022/09/13 05:19:05;;;;;;;13.07;10.70;;;;;;;15.94;100.00;99616.88;5052198;28;20081;-71
2022/09/13 05:21:30;;;;;;;12.18;10.88;;;;;;;15.73;100.00;99665.00;5052056;28;20021;-72
2022/09/13 05:23:56;;;;;;;15.05;11.00;;;;;;;15.80;100.00;99653.53;5052274;28;20029;-71
2022/09/13 05:26:25;;;;;;;18.48;11.02;;;;;;;16.42;100.00;99675.66;5050812;28;20025;-70
2022/09/13 05:28:50;;;;;;;13.77;10.25;;;;;;;17.56;100.00;99759.78;5050973;28;20033;-71
2022/09/13 05:31:26;;;;;;;15.63;10.43;;;;;;;16.33;100.00;99692.44;5051774;28;20430;-72
2022/09/13 05:33:55;;;;;;;17.77;9.90;;;;;;;17.38;100.00;99768.53;5050634;28;20507;-72
2022/09/13 05:36:21;;;;;;;15.13;10.65;;;;;;;17.14;100.00;99748.50;5052111;28;20036;-72
2022/09/13 05:38:47;;;;;;;15.57;10.30;;;;;;;17.20;100.00;99701.06;5050678;28;20021;-71
2022/09/13 05:41:12;;;;;;;14.15;10.63;;;;;;;17.51;100.00;99748.94;5050513;28;20032;-71
2022/09/13 05:43:38;;;;;;;14.98;10.93;;;;;;;17.29;100.00;99680.78;5051699;28;20029;-71
2022/09/13 05:46:09;;;;;;;17.38;11.40;;;;;;;17.13;100.00;99686.97;5049435;28;20120;-71
2022/09/13 05:48:35;;;;;;;13.25;10.77;;;;;;;17.72;100.00;99760.50;5051214;28;20449;-72
2022/09/13 05:51:20;;;;;;;17.52;10.23;;;;;;;17.24;100.00;99682.00;5050112;28;20481;-71
2022/09/13 05:53:48;;;;;;;13.73;10.25;;;;;;;17.31;100.00;99701.28;5051130;28;20504;-72
2022/09/13 05:56:17;;;;;;;13.23;11.25;;;;;;;18.14;100.00;99750.16;5051602;28;20029;-71
2022/09/13 05:58:45;;;;;;;17.25;11.10;;;;;;;18.18;100.00;99765.28;5051066;28;20624;-72
2022/09/13 06:01:12;;;;;;;16.05;10.40;;;;;;;17.68;100.00;99764.19;5051099;28;20521;-72
2022/09/13 06:03:38;;;;;;;15.88;10.90;;;;;;;18.12;100.00;99691.03;5051264;28;20132;-71
2022/09/13 06:06:04;;;;;;;21.90;10.95;;;;;;;18.09;100.00;99698.13;5051452;28;20110;-72
2022/09/13 06:08:32;;;;;;;19.92;11.32;;;;;;;17.77;100.00;99696.75;5050051;28;20037;-72
2022/09/13 06:11:00;;;;;;;23.38;10.93;;;;;;;17.68;100.00;99695.59;5049848;28;20157;-72
2022/09/13 06:13:26;;;;;;;19.70;11.23;;;;;;;18.36;100.00;99771.03;5050861;28;20032;-71
2022/09/13 06:15:53;;;;;;;18.42;11.75;;;;;;;17.84;100.00;99703.16;5050161;28;20037;-71
2022/09/13 06:18:19;;;;;;;17.20;11.35;;;;;;;18.19;100.00;99760.97;5051271;28;20032;-72
2022/09/13 06:20:45;;;;;;;13.30;11.50;;;;;;;17.39;100.00;99706.75;5051030;28;20021;-72
2022/09/13 06:23:10;;;;;;;13.75;10.82;;;;;;;18.08;100.00;99707.59;5051211;28;20029;-73
2022/09/13 06:25:36;;;;;;;12.32;10.88;;;;;;;18.41;100.00;99763.00;5050733;28;20032;-74
2022/09/13 06:28:02;;;;;;;12.48;11.25;;;;;;;18.57;100.00;99772.28;5050712;28;20036;-77
2022/09/13 06:30:28;;;;;;;11.60;10.30;;;;;;;18.74;100.00;99697.31;5083558;28;20060;-73
2022/09/13 06:32:55;;;;;;;11.85;9.27;;;;;;;18.43;100.00;99713.13;5051414;28;20495;-73
2022/09/13 06:35:20;;;;;;;13.70;9.45;;;;;;;18.62;100.00;99702.47;5049393;28;20025;-75
2022/09/13 06:37:46;;;;;;;12.30;10.50;;;;;;;18.75;100.00;99772.84;5049616;28;20456;-71
2022/09/13 06:40:12;;;;;;;11.77;10.35;;;;;;;19.01;100.00;99775.34;5050255;28;20029;-71
2022/09/13 06:42:38;;;;;;;11.18;9.48;;;;;;;19.48;100.00;99719.81;5050480;28;20415;-73
2022/09/13 06:45:04;;;;;;;15.55;10.10;;;;;;;20.81;100.00;99777.44;5049568;28;20032;-71
2022/09/13 06:47:30;;;;;;;17.98;10.15;;;;;;;21.24;100.00;99731.97;5050398;28;20056;-70
2022/09/13 06:49:56;;;;;;;11.02;8.93;;;;;;;20.57;100.00;99783.44;5049776;28;20029;-70
2022/09/13 06:52:22;;;;;;;9.90;7.95;;;;;;;20.51;100.00;99675.41;5050639;28;20399;-71
2022/09/13 06:54:47;;;;;;;10.05;8.40;;;;;;;20.10;100.00;99703.38;5050354;28;20479;-71
2022/09/13 06:57:12;;;;;;;9.15;8.10;;;;;;;20.82;100.00;99776.50;5050447;28;20599;-72
2022/09/13 06:59:38;;;;;;;11.88;7.18;;;;;;;21.27;100.00;99735.13;5050496;28;20040;-72
2022/09/13 07:02:03;;;;;;;11.45;7.40;;;;;;;21.34;100.00;99792.41;5050912;28;20035;-71
2022/09/13 07:04:32;;;;;;;9.25;6.75;;;;;;;21.97;100.00;99769.38;5048924;28;20025;-72
2022/09/13 07:06:58;;;;;;;9.50;5.88;;;;;;;21.60;100.00;99804.19;5050838;28;20025;-74
2022/09/13 07:09:24;;;;;;;6.40;5.80;;;;;;;20.81;100.00;99726.56;5049044;28;20037;-71
2022/09/13 07:11:52;;;;;;;7.25;5.70;;;;;;;21.28;100.00;99792.88;5050605;28;20199;-72
2022/09/13 07:14:23;;;;;;;5.10;4.60;;;;;;;21.51;100.00;99729.88;5050300;28;20090;-72
2022/09/13 07:16:50;;;;;;;7.78;6.38;;;;;;;22.04;100.00;99788.69;5050639;28;20032;-72
2022/09/13 07:19:22;;;;;;;11.85;6.53;;;;;;;21.04;100.00;99772.25;5049395;28;20402;-72
2022/09/13 07:21:48;;;;;;;10.20;6.20;;;;;;;22.58;100.00;99793.88;5048922;28;20029;-72
2022/09/13 07:24:15;;;;;;;7.75;6.30;;;;;;;22.34;100.00;99749.97;5049317;28;20029;-73
2022/09/13 07:26:40;;;;;;;6.45;5.80;;;;;;;22.07;100.00;99779.84;5050460;28;20108;-72
2022/09/13 07:29:10;;;;;;;8.30;5.95;;;;;;;20.82;100.00;99758.41;5050522;28;20052;-71
2022/09/13 07:31:38;;;;;;;7.20;6.50;;;;;;;20.84;100.00;99753.97;5050216;28;20055;-72
2022/09/13 07:34:12;;;;;;;7.97;6.50;;;;;;;20.96;100.00;99751.28;5049176;28;20029;-71
2022/09/13 07:36:37;;;;;;;8.40;6.30;;;;;;;20.95;100.00;99730.72;5050542;28;20035;-71
2022/09/13 07:39:04;;;;;;;11.60;6.25;;;;;;;21.34;100.00;99735.50;5049903;28;20029;-71
2022/09/13 07:41:31;;;;;;;6.68;5.70;;;;;;;21.72;100.00;99813.63;5050229;28;20025;-69
2022/09/13 07:43:57;;;;;;;6.63;5.63;;;;;;;21.50;100.00;99811.00;5049126;28;20032;-71
2022/09/13 07:46:25;;;;;;;10.55;5.55;;;;;;;21.05;100.00;99742.88;5048836;28;20043;-71
2022/09/13 07:48:55;;;;;;;8.10;5.20;;;;;;;21.32;100.00;99739.97;5050089;28;20033;-70
2022/09/13 07:51:26;;;;;;;8.30;5.72;;;;;;;21.54;100.00;99802.06;5048986;28;20044;-71
2022/09/13 07:53:55;;;;;;;12.80;5.00;;;;;;;21.11;100.00;99776.03;5049893;28;20040;-71
2022/09/13 07:56:22;;;;;;;11.98;5.03;;;;;;;21.08;100.00;99762.50;5049780;28;20033;-72
2022/09/13 07:58:50;;;;;;;8.02;4.40;;;;;;;21.57;100.00;99815.59;5048640;28;20056;-72
2022/09/13 08:01:22;;;;;;;4.60;4.05;;;;;;;22.39;100.00;99817.81;5048609;28;20442;-72
2022/09/13 08:03:54;;;;;;;;;;;;;;;23.05;100.00;99809.00;5049194;28;20029;-71
2022/09/13 08:06:21;;;;;;;3.95;3.20;;;;;;;22.51;100.00;99751.22;5050033;28;19917;-71
2022/09/13 08:08:46;;;;;;;4.55;3.60;;;;;;;22.81;100.00;99735.81;5051847;28;20063;-71
2022/09/13 08:11:18;;;;;;;4.00;3.25;;;;;;;22.38;100.00;99800.63;5053635;28;20115;-71
2022/09/13 08:13:44;;;;;;;;;;;;;;;22.52;100.00;99803.91;5052975;28;20029;-72
2022/09/13 08:16:10;;;;;;;6.65;2.50;;;;;;;23.09;100.00;99794.84;5053057;28;19915;-72
2022/09/13 08:18:35;;;;;;;3.08;2.13;;;;;;;23.76;94.36;99779.63;5051699;28;20025;-72
2022/09/13 08:21:01;;;;;;;2.42;1.80;;;;;;;23.79;83.45;99781.16;5053741;28;20040;-71
2022/09/13 08:23:27;;;;;;;2.58;1.70;;;;;;;24.63;81.77;99784.09;5053323;28;20104;-71
2022/09/13 08:25:53;;;;;;;2.33;2.00;;;;;;;23.89;79.38;99748.22;5053397;28;20021;-71
2022/09/13 08:28:20;;;;;;;3.00;1.90;;;;;;;24.84;73.16;99748.38;5053469;28;20035;-70
2022/09/13 08:30:47;;;;;;;2.85;1.98;;;;;;;24.71;74.61;99778.19;5051625;28;20491;-72
2022/09/13 08:33:13;;;;;;;5.90;2.30;;;;;;;25.09;72.31;99769.56;5052088;28;20025;-71
2022/09/13 08:35:39;;;;;;;2.65;1.67;;;;;;;25.31;74.89;99777.88;5053215;28;20037;-71
2022/09/13 08:38:05;;;;;;;3.20;1.83;;;;;;;23.92;72.19;99664.84;5052643;28;20508;-76
2022/09/13 08:40:38;;;;;;;4.63;2.20;;;;;;;25.10;68.81;99773.81;5053095;28;20033;-72
2022/09/13 08:43:25;;;;;;;2.80;2.28;;;;;;;25.10;69.94;99772.00;5052965;28;20029;-72
2022/09/13 08:46:21;;;;;;;2.97;1.60;;;;;;;26.07;66.39;99775.97;5052983;28;20525;-71
2022/09/13 08:48:49;;;;;;;2.75;2.00;;;;;;;25.71;61.51;99712.50;5051340;28;20044;-72
2022/09/13 08:51:23;;;;;;;3.17;1.80;;;;;;;25.94;58.59;99692.06;5051651;28;20031;-72
2022/09/13 08:53:49;;;;;;;2.20;1.50;;;;;;;26.41;56.54;99737.84;5050917;28;20064;-72
2022/09/13 08:57:05;;;;;;;2.03;1.65;;;;;;;25.93;55.45;99781.63;5052518;28;20111;-71
2022/09/13 08:59:50;;;;;;;2.45;1.92;;;;;;;24.70;69.31;99779.97;5042229;28;20041;-73
2022/09/13 09:02:53;;;;;;;5.35;3.15;;;;;;;23.91;82.07;99778.31;5050932;28;20029;-72
2022/09/13 09:05:26;;;;;;;3.47;1.77;;;;;;;24.35;74.02;99771.03;5051425;28;20036;-71
2022/09/13 09:08:10;;;;;;;3.38;1.95;;;;;;;23.75;75.28;99728.66;5052426;28;20091;-72
2022/09/13 09:10:41;;;;;;;2.72;1.70;;;;;;;23.70;77.71;99755.97;5051115;28;20564;-72
2022/09/13 09:13:47;;;;;;;4.07;2.10;;;;;;;23.96;83.37;99768.38;5052217;28;20064;-71
2022/09/13 09:16:46;;;;;;;6.75;1.90;;;;;;;23.49;82.50;99734.44;5052043;28;20067;-71
2022/09/13 09:19:27;;;;;;;11.68;2.00;;;;;;;23.38;78.86;99763.88;5051355;28;20045;-68
2022/09/13 09:21:52;;;;;;;2.08;1.70;;;;;;;23.39;77.48;99759.53;5034981;28;20033;-71
2022/09/13 09:24:24;;;;;;;5.25;1.58;;;;;;;23.03;72.89;99763.38;5032205;28;20176;-70
2022/09/13 09:26:51;;;;;;;4.57;1.73;;;;;;;23.21;71.67;99697.00;5049683;28;20560;-72
2022/09/13 09:29:24;;;;;;;3.28;1.65;;;;;;;22.88;71.62;99707.59;5050876;28;20475;-71
2022/09/13 09:32:17;;;;;;;5.38;2.25;;;;;;;23.55;70.42;99775.47;5049848;28;20029;-71
2022/09/13 09:35:13;;;;;;;4.38;1.40;;;;;;;24.20;68.31;99762.84;5028938;28;20088;-70
2022/09/13 09:37:40;;;;;;;2.17;1.40;;;;;;;23.54;68.72;99766.84;5030620;28;20507;-70
2022/09/13 09:40:11;;;;;;;2.90;1.70;;;;;;;23.07;69.59;99715.50;5031680;28;20044;-70
2022/09/13 09:42:48;;;;;;;2.40;1.58;;;;;;;23.27;65.16;99766.53;5051799;28;20029;-71
2022/09/13 09:45:25;;;;;;;3.33;1.60;;;;;;;23.27;64.94;99766.53;5051646;28;20029;-70
2022/09/13 09:47:52;;;;;;;1.92;1.58;;;;;;;23.15;68.02;99747.63;5049610;28;20029;-73
2022/09/13 09:50:29;;;;;;;2.88;1.48;;;;;;;22.82;68.70;99680.41;5051545;28;20039;-74
2022/09/13 09:53:07;;;;;;;2.55;1.50;;;;;;;23.57;66.48;99763.16;5047049;28;20397;-70
2022/09/13 09:56:14;;;;;;;2.00;1.60;;;;;;;22.73;67.71;99685.53;5049406;28;20088;-71
2022/09/13 09:58:42;;;;;;;2.03;1.48;;;;;;;23.51;67.25;99703.97;5050661;28;20390;-73
2022/09/13 10:01:24;;;;;;;2.40;1.73;;;;;;;23.85;67.35;99749.44;5050010;28;20036;-71
2022/09/13 10:04:10;;;;;;;3.65;1.60;;;;;;;23.93;69.69;99727.06;5050700;28;20033;-72
2022/09/13 10:06:40;;;;;;;3.17;1.65;;;;;;;23.81;67.37;99681.38;5046911;28;20526;-70
2022/09/13 10:09:18;;;;;;;3.83;1.87;;;;;;;24.63;65.56;99627.22;5049920;28;20029;-70
2022/09/13 10:11:49;;;;;;;3.55;1.92;;;;;;;25.71;62.16;99733.34;5050985;28;20029;-71
2022/09/13 10:14:28;;;;;;;4.78;1.75;;;;;;;25.55;56.01;99733.16;5049261;28;20065;-72
2022/09/13 10:17:19;;;;;;;3.47;1.90;;;;;;;26.63;53.02;99727.78;5050545;28;20040;-70
2022/09/13 10:20:00;;;;;;;1.48;1.33;;;;;;;26.47;51.59;99732.03;5050602;28;20037;-72
2022/09/13 10:22:27;;;;;;;2.38;1.60;;;;;;;26.43;50.88;99662.88;5049139;28;20511;-71
2022/09/13 10:24:53;;;;;;;2.47;1.50;;;;;;;26.66;50.15;99712.78;5050684;28;20040;-72
2022/09/13 10:27:44;;;;;;;2.85;1.55;;;;;;;26.27;50.96;99663.56;5051121;28;20066;-71
2022/09/13 10:30:34;;;;;;;2.30;1.30;;;;;;;26.34;49.42;99727.22;5050702;28;20416;-70
2022/09/13 10:33:00;;;;;;;1.83;1.42;;;;;;;27.39;48.72;99650.44;5050790;28;20033;-71
2022/09/13 10:35:26;;;;;;;1.88;1.13;;;;;;;26.87;47.71;99708.06;5049505;28;20086;-71
2022/09/13 10:37:52;;;;;;;2.60;1.13;;;;;;;26.58;49.22;99646.53;5050703;28;20029;-71
2022/09/13 10:40:29;;;;;;;1.75;1.20;;;;;;;26.00;48.25;99720.97;5050384;28;20555;-72
2022/09/13 10:43:00;;;;;;;3.15;1.33;;;;;;;27.45;46.03;99709.88;5050833;28;20060;-71
2022/09/13 10:45:29;;;;;;;4.78;1.30;;;;;;;26.15;47.28;99640.47;5051011;28;20017;-71
2022/09/13 10:48:16;;;;;;;1.85;1.45;;;;;;;26.74;47.56;99713.69;5050509;28;20053;-73
2022/09/13 10:50:59;;;;;;;2.90;1.30;;;;;;;26.96;46.45;99666.19;5050904;28;20048;-72
2022/09/13 10:53:37;;;;;;;1.48;1.10;;;;;;;27.63;45.47;99694.16;5050697;28;20045;-73
2022/09/13 10:56:04;;;;;;;1.25;1.05;;;;;;;28.17;43.19;99705.88;5049596;28;20502;-72
2022/09/13 10:58:30;;;;;;;1.65;1.30;;;;;;;27.62;42.34;99699.50;5050382;28;20033;-72
2022/09/13 11:01:13;;;;;;;1.33;1.10;;;;;;;25.87;44.58;99711.88;5050172;28;20461;-72
2022/09/13 11:03:59;;;;;;;1.17;1.05;;;;;;;26.70;42.41;99688.88;5049135;28;20032;-72
2022/09/13 11:06:41;;;;;;;4.35;1.20;;;;;;;27.19;42.83;99700.44;5050513;28;20021;-72
2022/09/13 11:09:35;;;;;;;3.72;1.23;;;;;;;26.85;42.12;99689.97;5050613;28;20456;-72
2022/09/13 11:12:14;;;;;;;2.78;1.30;;;;;;;26.47;45.04;99695.50;5046063;28;20071;-72
2022/09/13 11:14:42;;;;;;;1.92;1.20;;;;;;;25.61;46.33;99691.69;5049405;28;20021;-72
2022/09/13 11:17:29;;;;;;;2.30;1.40;;;;;;;25.61;48.03;99691.69;5049354;28;20033;-71
2022/09/13 11:20:17;;;;;;;1.70;1.20;;;;;;;25.14;47.11;99626.81;5050175;28;20040;-74
2022/09/13 11:22:54;;;;;;;1.60;1.23;;;;;;;24.37;46.35;99572.41;5049267;28;20418;-72
2022/09/13 11:25:39;;;;;;;2.50;1.20;;;;;;;25.92;45.13;99693.97;5050597;28;20404;-71
2022/09/13 11:28:07;;;;;;;2.67;1.10;;;;;;;26.29;45.68;99681.66;5048983;28;20132;-71
2022/09/13 11:30:58;;;;;;;2.20;1.20;;;;;;;25.99;45.51;99679.41;5050179;28;20037;-71
2022/09/13 11:33:32;;;;;;;1.63;1.17;;;;;;;26.02;44.92;99684.31;5049320;28;20041;-71
2022/09/13 11:36:20;;;;;;;2.90;1.40;;;;;;;25.57;46.50;99679.94;5050352;28;20523;-71
2022/09/13 11:39:07;;;;;;;3.03;1.35;;;;;;;25.66;48.48;99681.66;5048791;28;20032;-71
2022/09/13 11:41:41;;;;;;;6.00;1.77;;;;;;;25.30;48.54;99692.91;5048730;28;20527;-70
2022/09/13 11:44:16;;;;;;;3.08;1.40;;;;;;;24.85;49.15;99686.75;5052236;28;20029;-70
2022/09/13 11:47:26;;;;;;;3.40;2.03;;;;;;;25.22;50.94;99674.59;5054176;28;20056;-70
2022/09/13 11:50:32;;;;;;;4.15;1.70;;;;;;;25.39;49.74;99673.84;5044991;28;20045;-71